This is the latest recevied weather packets stored in our database for station/object DB0MAK-13. If no packets are shown the sender has not sent any weather packets the latest 1 day(s).
| Time | Temp. | Humidity | Pressure | Rain* | Wind** | Luminosity | Snow |
|---|---|---|---|---|---|---|---|
| 1777975987 | 20.56° C | 55% | 1006.2 hPa | 0 mm | 1.79 m/s, 68° | - | - |
| 1777975567 | 19.44° C | 56% | 1006.2 hPa | 0 mm | 2.68 m/s, 73° | - | - |
| 1777975444 | 19.44° C | 56% | 1006.2 hPa | 0 mm | 2.68 m/s, 70° | - | - |
| 1777974844 | 19.44° C | 58% | 1006.4 hPa | 0 mm | 4.02 m/s, 68° | - | - |
| 1777974727 | 19.44° C | 58% | 1006.4 hPa | 0 mm | 1.79 m/s, 81° | - | - |
| 1777974307 | 19.44° C | 59% | 1006.6 hPa | 0 mm | 0 m/s | - | - |
| 1777974244 | 19.44° C | 59% | 1006.5 hPa | 0 mm | 0 m/s | - | - |
| 1777973887 | 18.89° C | 58% | 1006.7 hPa | 0 mm | 2.68 m/s, 71° | - | - |
| 1777973644 | 18.89° C | 59% | 1006.7 hPa | 0 mm | 1.79 m/s, 81° | - | - |
| 1777973467 | 18.89° C | 61% | 1006.7 hPa | 0 mm | 2.68 m/s, 77° | - | - |
| 1777973044 | 18.89° C | 60% | 1006.7 hPa | 0 mm | 4.02 m/s, 75° | - | - |
| 1777972627 | 18.89° C | 60% | 1006.9 hPa | 0 mm | 0.45 m/s, 117° | - | - |
| 1777972444 | 18.33° C | 62% | 1006.7 hPa | 0 mm | 2.68 m/s, 96° | - | - |
| 1777972209 | 18.33° C | 61% | 1007 hPa | 0 mm | 1.79 m/s, 73° | - | - |
| 1777971844 | 18.33° C | 63% | 1007.1 hPa | 0 mm | 1.34 m/s, 72° | - | - |
| 1777971787 | 18.33° C | 63% | 1007 hPa | 0 mm | 1.34 m/s, 76° | - | - |
| 1777971369 | 18.33° C | 63% | 1007.1 hPa | 0 mm | 1.79 m/s, 87° | - | - |
| 1777971244 | 18.33° C | 62% | 1007.2 hPa | 0 mm | 1.79 m/s, 76° | - | - |
| 1777970644 | 18.33° C | 66% | 1007.2 hPa | 0 mm | 0.45 m/s, 107° | - | - |
| 1777970107 | 17.22° C | 69% | 1007.2 hPa | 0 mm | 0.45 m/s, 145° | - | - |
| 1777970044 | 17.22° C | 69% | 1007.2 hPa | 0 mm | 0.45 m/s, 138° | - | - |
| 1777969689 | 17.22° C | 68% | 1007.2 hPa | 0 mm | 1.34 m/s, 101° | - | - |
| 1777969444 | 17.22° C | 70% | 1007.4 hPa | 0 mm | 1.34 m/s, 90° | - | - |
| 1777969267 | 17.22° C | 70% | 1007.4 hPa | 0 mm | 1.34 m/s, 95° | - | - |
| 1777968844 | 17.22° C | 70% | 1007.2 hPa | 0 mm | 1.34 m/s, 98° | - | - |
* Rain latest hour (hover to see other rain measurements)
** Current wind speed in m/s (hover to see current wind gust speed)